createdAt,value
2023-06-22T00:02:26.050Z,47.75
2023-06-22T00:04:52.504Z,47.82
2023-06-22T00:07:18.952Z,47.90
2023-06-22T00:09:45.313Z,48.02
2023-06-22T00:12:11.678Z,48.22
2023-06-22T00:14:38.059Z,48.37
2023-06-22T00:17:04.611Z,48.57
2023-06-22T00:19:30.999Z,48.48
2023-06-22T00:22:01.157Z,48.47
2023-06-22T00:24:27.569Z,48.73
2023-06-22T00:26:53.996Z,48.94
2023-06-22T00:29:20.377Z,49.27
2023-06-22T00:31:46.884Z,49.13
2023-06-22T00:34:13.369Z,49.33
2023-06-22T00:36:41.915Z,49.26
2023-06-22T00:39:09.030Z,49.70
2023-06-22T00:41:36.334Z,49.73
2023-06-22T00:44:05.031Z,49.81
2023-06-22T00:46:31.715Z,49.64
2023-06-22T00:49:00.892Z,49.62
2023-06-22T00:51:28.761Z,49.94
2023-06-22T00:53:55.538Z,49.69
2023-06-22T00:56:25.827Z,49.79
2023-06-22T00:58:53.740Z,49.87
2023-06-22T01:01:24.514Z,50.00
2023-06-22T01:03:58.682Z,50.00
2023-06-22T01:06:39.297Z,50.15
2023-06-22T01:09:31.484Z,50.08
2023-06-22T01:12:02.356Z,50.39
2023-06-22T01:14:57.810Z,50.36
2023-06-22T01:17:25.685Z,50.15
2023-06-22T01:19:57.390Z,50.46
2023-06-22T01:22:31.850Z,50.54
2023-06-22T01:25:11.911Z,50.81
2023-06-22T01:27:46.577Z,51.23
2023-06-22T01:30:16.681Z,51.09
2023-06-22T01:32:44.057Z,51.22
2023-06-22T01:35:11.909Z,51.12
2023-06-22T01:37:39.654Z,51.45
2023-06-22T01:40:09.268Z,51.28
2023-06-22T01:42:37.288Z,51.19
2023-06-22T01:45:04.379Z,51.55
2023-06-22T01:47:30.920Z,51.44
2023-06-22T01:49:57.735Z,51.64
2023-06-22T01:52:24.157Z,51.53
2023-06-22T01:54:50.625Z,51.77
2023-06-22T01:57:17.280Z,51.48
2023-06-22T02:00:02.383Z,51.55
2023-06-22T02:02:57.916Z,51.97
2023-06-22T02:05:27.713Z,52.26
2023-06-22T02:08:11.596Z,52.35
2023-06-22T02:10:42.059Z,52.61
2023-06-22T02:13:11.056Z,52.64
2023-06-22T02:15:37.923Z,52.64
2023-06-22T02:18:04.877Z,52.90
2023-06-22T02:20:31.610Z,52.59
2023-06-22T02:22:58.419Z,52.92
2023-06-22T02:25:25.098Z,53.04
2023-06-22T02:27:51.517Z,52.81
2023-06-22T02:30:17.972Z,53.07
2023-06-22T02:32:44.489Z,53.32
2023-06-22T02:35:11.100Z,53.47
2023-06-22T02:37:42.352Z,53.71
2023-06-22T02:40:10.457Z,53.61
2023-06-22T02:42:38.378Z,53.90
2023-06-22T02:45:05.292Z,54.26
2023-06-22T02:47:31.779Z,54.04
2023-06-22T02:49:58.449Z,54.01
2023-06-22T02:52:25.366Z,54.00
2023-06-22T02:54:51.774Z,54.36
2023-06-22T02:57:18.418Z,54.23
2023-06-22T02:59:44.953Z,54.34
2023-06-22T03:02:12.940Z,54.60
2023-06-22T03:04:40.098Z,54.57
2023-06-22T03:07:07.151Z,54.52
2023-06-22T03:09:34.096Z,54.92
2023-06-22T03:12:00.528Z,55.08
2023-06-22T03:14:34.482Z,55.26
2023-06-22T03:17:04.227Z,55.31
2023-06-22T03:19:32.233Z,55.39
2023-06-22T03:22:01.177Z,55.25
2023-06-22T03:24:29.635Z,55.36
2023-06-22T03:26:57.510Z,55.41
2023-06-22T03:29:24.935Z,55.52
2023-06-22T03:31:51.707Z,55.62
2023-06-22T03:34:18.552Z,55.79
2023-06-22T03:36:46.314Z,55.96
2023-06-22T03:39:12.775Z,56.26
2023-06-22T03:41:40.577Z,56.20
2023-06-22T03:44:07.360Z,56.30
2023-06-22T03:46:33.787Z,56.35
2023-06-22T03:49:00.253Z,56.40
2023-06-22T03:51:26.626Z,56.40
2023-06-22T03:53:53.052Z,56.55
2023-06-22T03:56:21.329Z,56.55
2023-06-22T03:58:47.785Z,56.40
2023-06-22T04:01:14.150Z,56.59
2023-06-22T04:03:42.253Z,56.80
2023-06-22T04:06:08.837Z,56.78
2023-06-22T04:08:35.408Z,56.76
2023-06-22T04:11:01.892Z,56.83
2023-06-22T04:13:28.317Z,56.77
2023-06-22T04:15:54.836Z,56.77
2023-06-22T04:18:21.239Z,57.01
2023-06-22T04:20:47.917Z,57.04
2023-06-22T04:23:14.426Z,56.87
2023-06-22T04:25:40.838Z,57.00
2023-06-22T04:28:13.642Z,57.19
2023-06-22T04:30:47.434Z,57.20
2023-06-22T04:33:15.535Z,57.27
2023-06-22T04:35:44.623Z,57.35
2023-06-22T04:38:14.089Z,57.28
2023-06-22T04:40:41.051Z,57.00
2023-06-22T04:43:07.661Z,57.10
2023-06-22T04:45:34.361Z,57.10
2023-06-22T04:48:00.899Z,56.91
2023-06-22T04:50:27.533Z,57.17
2023-06-22T04:52:54.200Z,56.88
2023-06-22T04:55:21.188Z,56.86
2023-06-22T04:57:49.737Z,56.77
2023-06-22T05:00:20.717Z,56.95
2023-06-22T05:02:47.722Z,56.76
2023-06-22T05:05:14.972Z,57.00
2023-06-22T05:07:44.347Z,56.90
2023-06-22T05:10:13.859Z,56.73
2023-06-22T05:12:41.032Z,56.75
2023-06-22T05:15:10.794Z,56.74
2023-06-22T05:17:42.192Z,56.63
2023-06-22T05:20:13.256Z,56.75
2023-06-22T05:22:41.931Z,56.85
2023-06-22T05:25:10.252Z,56.79
2023-06-22T05:27:40.451Z,57.13
2023-06-22T05:30:08.818Z,56.73
2023-06-22T05:32:35.952Z,56.89
2023-06-22T05:35:03.968Z,57.04
2023-06-22T05:37:30.618Z,57.10
2023-06-22T05:39:58.192Z,57.15
2023-06-22T05:42:26.361Z,57.35
2023-06-22T05:44:54.291Z,57.45
2023-06-22T05:47:20.868Z,57.34
2023-06-22T05:49:47.351Z,57.23
2023-06-22T05:52:13.761Z,57.52
2023-06-22T05:54:40.199Z,57.19
2023-06-22T05:57:06.591Z,57.24
2023-06-22T05:59:32.954Z,57.25
2023-06-22T06:01:59.655Z,57.35
2023-06-22T06:04:26.927Z,57.24
2023-06-22T06:06:53.423Z,57.53
2023-06-22T06:09:19.803Z,57.79
2023-06-22T06:11:46.175Z,57.60
2023-06-22T06:14:12.572Z,57.72
2023-06-22T06:16:39.017Z,58.05
2023-06-22T06:19:05.405Z,58.10
2023-06-22T06:21:31.773Z,58.32
2023-06-22T06:23:58.217Z,58.58
2023-06-22T06:26:30.697Z,58.45
2023-06-22T06:28:58.409Z,58.66
2023-06-22T06:31:25.035Z,59.01
2023-06-22T06:33:51.495Z,59.36
2023-06-22T06:36:18.076Z,59.41
2023-06-22T06:38:44.488Z,59.88
2023-06-22T06:41:10.877Z,59.90
2023-06-22T06:43:37.246Z,60.25
2023-06-22T06:46:04.297Z,60.17
2023-06-22T06:48:30.850Z,60.41
2023-06-22T06:50:57.379Z,60.52
2023-06-22T06:53:23.770Z,60.83
2023-06-22T06:55:50.155Z,60.89
2023-06-22T06:58:17.346Z,61.26
2023-06-22T07:00:44.621Z,61.10
2023-06-22T07:03:11.012Z,61.49
2023-06-22T07:05:37.490Z,61.74
2023-06-22T07:08:04.033Z,61.80
2023-06-22T07:10:30.676Z,61.89
2023-06-22T07:12:58.213Z,62.00
2023-06-22T07:15:24.765Z,61.67
2023-06-22T07:17:51.207Z,61.81
2023-06-22T07:20:17.674Z,61.66
2023-06-22T07:22:48.500Z,62.04
2023-06-22T07:25:18.552Z,61.95
2023-06-22T07:28:02.893Z,61.71
2023-06-22T07:30:30.530Z,61.71
2023-06-22T07:32:57.826Z,61.69
2023-06-22T07:35:24.757Z,61.79
2023-06-22T07:37:51.360Z,61.54
2023-06-22T07:40:17.831Z,61.51
2023-06-22T07:42:45.172Z,61.71
2023-06-22T07:45:11.673Z,61.44
2023-06-22T07:47:38.169Z,61.81
2023-06-22T07:50:05.578Z,61.58
2023-06-22T07:52:32.314Z,61.65
2023-06-22T07:54:58.931Z,61.09
2023-06-22T07:57:33.189Z,61.32
2023-06-22T08:00:00.742Z,61.05
2023-06-22T08:02:27.776Z,61.12
2023-06-22T08:05:00.608Z,60.96
2023-06-22T08:07:34.488Z,60.52
2023-06-22T08:10:01.271Z,60.56
2023-06-22T08:12:27.677Z,60.05
2023-06-22T08:14:54.048Z,60.14
2023-06-22T08:17:20.494Z,60.00
2023-06-22T08:19:46.922Z,59.44
2023-06-22T08:22:13.296Z,59.38
2023-06-22T08:24:39.661Z,59.28
2023-06-22T08:27:09.762Z,59.26
2023-06-22T08:29:36.849Z,59.26
2023-06-22T08:32:03.401Z,59.29
2023-06-22T08:34:29.896Z,58.96
2023-06-22T08:36:56.350Z,59.68
2023-06-22T08:39:22.834Z,59.52
2023-06-22T08:41:49.333Z,58.41
2023-06-22T08:44:19.615Z,58.88
2023-06-22T08:46:46.528Z,58.21
2023-06-22T08:49:12.922Z,57.99
2023-06-22T08:51:39.344Z,57.89
2023-06-22T08:54:06.014Z,57.99
2023-06-22T08:56:32.521Z,57.51
2023-06-22T08:58:58.988Z,57.57
2023-06-22T09:01:25.408Z,57.24
2023-06-22T09:03:56.721Z,56.93
2023-06-22T09:06:23.400Z,57.12
2023-06-22T09:08:50.185Z,57.02
2023-06-22T09:11:17.153Z,57.06
2023-06-22T09:13:43.662Z,57.02
2023-06-22T09:16:10.186Z,56.68
2023-06-22T09:18:37.194Z,56.38
2023-06-22T09:21:03.774Z,56.35
2023-06-22T09:23:30.332Z,56.57
2023-06-22T09:25:56.842Z,56.84
2023-06-22T09:28:23.266Z,56.97
2023-06-22T09:30:49.711Z,56.77
2023-06-22T09:33:16.187Z,56.95
2023-06-22T09:35:42.662Z,56.86
2023-06-22T09:38:09.102Z,57.01
2023-06-22T09:40:40.908Z,56.84
2023-06-22T09:43:07.408Z,56.76
2023-06-22T09:45:33.958Z,56.73
2023-06-22T09:48:00.427Z,56.68
2023-06-22T09:50:27.336Z,56.42
2023-06-22T09:52:56.120Z,56.13
2023-06-22T09:55:23.584Z,56.19
2023-06-22T09:57:50.118Z,56.38
2023-06-22T10:00:18.151Z,56.11
2023-06-22T10:02:45.549Z,56.13
2023-06-22T10:05:12.772Z,56.09
2023-06-22T10:07:43.196Z,55.86
2023-06-22T10:10:10.938Z,55.70
2023-06-22T10:12:37.410Z,55.13
2023-06-22T10:15:04.234Z,54.92
2023-06-22T10:17:31.182Z,55.03
2023-06-22T10:19:57.630Z,54.50
2023-06-22T10:22:24.095Z,54.36
2023-06-22T10:24:50.613Z,54.14
2023-06-22T10:27:17.331Z,53.37
2023-06-22T10:29:43.976Z,52.95
2023-06-22T10:32:10.387Z,52.33
2023-06-22T10:34:36.836Z,51.86
2023-06-22T10:37:03.259Z,51.74
2023-06-22T10:39:29.709Z,51.70
2023-06-22T10:41:57.127Z,50.65
2023-06-22T10:44:23.645Z,50.50
2023-06-22T10:46:50.070Z,50.64
2023-06-22T10:49:16.525Z,50.32
2023-06-22T10:51:42.972Z,50.31
2023-06-22T10:54:09.382Z,50.06
2023-06-22T10:56:35.857Z,50.19
2023-06-22T10:59:02.887Z,50.67
2023-06-22T11:01:35.067Z,50.71
2023-06-22T11:04:02.859Z,50.84
2023-06-22T11:06:29.517Z,51.00
2023-06-22T11:09:04.387Z,50.97
2023-06-22T11:11:33.660Z,51.14
2023-06-22T11:14:00.122Z,51.20
2023-06-22T11:16:26.644Z,51.09
2023-06-22T11:18:53.080Z,51.27
2023-06-22T11:21:19.512Z,51.15
2023-06-22T11:23:46.501Z,51.00
2023-06-22T11:26:12.985Z,51.13
2023-06-22T11:28:39.501Z,51.33
2023-06-22T11:31:20.706Z,51.86
2023-06-22T11:33:52.195Z,52.33
2023-06-22T11:36:20.420Z,52.92
2023-06-22T11:38:46.882Z,52.95
2023-06-22T11:41:13.362Z,53.60
2023-06-22T11:43:39.804Z,54.17
2023-06-22T11:46:06.402Z,54.55
2023-06-22T11:48:33.700Z,54.98
2023-06-22T11:51:00.455Z,55.43
2023-06-22T11:53:27.735Z,55.72
2023-06-22T11:55:55.376Z,56.32
2023-06-22T11:58:22.294Z,57.09
2023-06-22T12:00:51.570Z,57.61
2023-06-22T12:03:19.945Z,58.12
2023-06-22T12:05:46.625Z,58.65
2023-06-22T12:08:14.502Z,59.22
2023-06-22T12:10:40.929Z,59.81
2023-06-22T12:13:07.412Z,60.40
2023-06-22T12:15:33.877Z,60.98
2023-06-22T12:18:00.377Z,61.58
2023-06-22T12:20:26.858Z,61.94
2023-06-22T12:22:53.729Z,62.43
2023-06-22T12:25:20.186Z,63.97
2023-06-22T12:27:46.593Z,64.13
2023-06-22T12:30:13.072Z,64.56
2023-06-22T12:32:39.560Z,65.44
2023-06-22T12:35:08.341Z,65.61
2023-06-22T12:37:34.840Z,66.11
2023-06-22T12:40:01.362Z,66.63
2023-06-22T12:42:29.143Z,67.23
2023-06-22T12:44:56.197Z,67.16
2023-06-22T12:47:22.802Z,67.43
2023-06-22T12:49:49.352Z,67.29
2023-06-22T12:52:15.969Z,67.56
2023-06-22T12:54:53.975Z,67.60
2023-06-22T12:57:21.594Z,67.58
2023-06-22T12:59:48.014Z,67.44
2023-06-22T13:02:14.695Z,67.38
2023-06-22T13:04:41.182Z,66.98
2023-06-22T13:07:20.297Z,67.05
2023-06-22T13:09:47.618Z,67.01
2023-06-22T13:12:14.125Z,67.08
2023-06-22T13:14:40.540Z,67.06
2023-06-22T13:17:06.968Z,67.04
2023-06-22T13:19:33.610Z,67.28
2023-06-22T13:22:00.942Z,67.38
2023-06-22T13:24:27.354Z,67.40
2023-06-22T13:26:53.933Z,67.57
2023-06-22T13:29:20.406Z,67.51
2023-06-22T13:31:46.924Z,67.53
2023-06-22T13:34:13.556Z,67.75
2023-06-22T13:36:40.007Z,67.81
2023-06-22T13:39:06.508Z,67.83
2023-06-22T13:41:33.151Z,67.92
2023-06-22T13:43:59.583Z,68.08
2023-06-22T13:46:26.172Z,68.14
2023-06-22T13:48:54.402Z,68.32
2023-06-22T13:51:23.297Z,68.59
2023-06-22T13:53:49.804Z,68.52
2023-06-22T13:56:16.216Z,68.73
2023-06-22T13:58:43.950Z,68.85
2023-06-22T14:01:17.287Z,68.58
2023-06-22T14:03:46.611Z,68.87
2023-06-22T14:06:13.133Z,69.10
2023-06-22T14:08:42.122Z,69.30
2023-06-22T14:11:09.009Z,69.24
2023-06-22T14:13:36.733Z,69.43
2023-06-22T14:16:03.334Z,69.63
2023-06-22T14:18:29.765Z,69.30
2023-06-22T14:20:56.197Z,69.43
2023-06-22T14:23:22.645Z,69.50
2023-06-22T14:25:49.094Z,69.48
2023-06-22T14:28:17.352Z,69.33
2023-06-22T14:30:43.936Z,69.55
2023-06-22T14:33:10.497Z,69.83
2023-06-22T14:35:36.992Z,69.61
2023-06-22T14:38:03.426Z,69.62
2023-06-22T14:40:30.712Z,69.93
2023-06-22T14:42:58.752Z,69.77
2023-06-22T14:45:25.444Z,69.85
2023-06-22T14:47:52.076Z,69.91
2023-06-22T14:50:18.539Z,69.85
2023-06-22T14:52:45.381Z,69.87
2023-06-22T14:55:11.900Z,69.87
2023-06-22T14:57:38.408Z,69.63
2023-06-22T15:00:07.382Z,69.76
2023-06-22T15:02:34.080Z,69.61
2023-06-22T15:05:00.526Z,69.57
2023-06-22T15:07:26.984Z,69.49
2023-06-22T15:09:53.403Z,69.70
2023-06-22T15:12:19.840Z,69.65
2023-06-22T15:14:46.319Z,69.59
2023-06-22T15:17:15.206Z,69.46
2023-06-22T15:19:41.733Z,69.43
2023-06-22T15:22:08.873Z,69.61
2023-06-22T15:24:35.556Z,70.16
2023-06-22T15:27:02.300Z,70.11
2023-06-22T15:29:31.153Z,70.04
2023-06-22T15:31:58.685Z,69.94
2023-06-22T15:34:27.586Z,70.00
2023-06-22T15:36:54.022Z,70.14
2023-06-22T15:39:20.469Z,70.16
2023-06-22T15:41:46.975Z,69.98
2023-06-22T15:44:13.466Z,70.05
2023-06-22T15:46:39.935Z,69.52
2023-06-22T15:49:06.915Z,69.07
2023-06-22T15:51:33.347Z,69.21
2023-06-22T15:53:59.782Z,69.37
2023-06-22T15:56:26.226Z,69.40
2023-06-22T15:58:52.741Z,69.97
2023-06-22T16:01:19.152Z,69.96
2023-06-22T16:03:45.615Z,70.46
2023-06-22T16:06:11.980Z,71.09
2023-06-22T16:08:38.479Z,70.93
2023-06-22T16:11:04.927Z,70.99
2023-06-22T16:13:31.307Z,71.50
2023-06-22T16:15:57.734Z,70.43
2023-06-22T16:18:24.119Z,70.35
2023-06-22T16:20:50.681Z,70.44
2023-06-22T16:23:17.176Z,70.32
2023-06-22T16:25:44.123Z,70.83
2023-06-22T16:28:10.536Z,70.93
2023-06-22T16:30:36.923Z,71.14
2023-06-22T16:33:03.733Z,71.29
2023-06-22T16:35:30.409Z,70.95
2023-06-22T16:37:57.038Z,70.98
2023-06-22T16:40:23.802Z,70.60
2023-06-22T16:42:53.219Z,70.34
2023-06-22T16:45:20.477Z,70.41
2023-06-22T16:47:48.426Z,70.57
2023-06-22T16:50:15.000Z,70.61
2023-06-22T16:52:42.837Z,70.57
2023-06-22T16:55:10.636Z,70.90
2023-06-22T16:57:37.236Z,71.07
2023-06-22T17:00:05.804Z,71.15
2023-06-22T17:02:35.638Z,71.31
2023-06-22T17:05:02.477Z,71.31
2023-06-22T17:07:31.365Z,71.41
2023-06-22T17:09:58.435Z,71.49
2023-06-22T17:12:26.043Z,71.16
2023-06-22T17:14:53.582Z,71.35
2023-06-22T17:17:20.132Z,71.62
2023-06-22T17:19:48.408Z,71.81
2023-06-22T17:22:14.831Z,72.06
2023-06-22T17:24:41.596Z,72.01
2023-06-22T17:27:08.314Z,72.28
2023-06-22T17:29:35.559Z,72.36
2023-06-22T17:32:05.610Z,72.50
2023-06-22T17:34:32.525Z,72.68
2023-06-22T17:37:03.062Z,72.76
2023-06-22T17:39:30.116Z,73.12
2023-06-22T17:41:56.588Z,73.19
2023-06-22T17:44:27.876Z,73.41
2023-06-22T17:46:55.845Z,73.60
2023-06-22T17:49:22.889Z,73.74
2023-06-22T17:51:54.933Z,73.67
2023-06-22T17:54:27.592Z,73.39
2023-06-22T17:57:01.895Z,73.30
2023-06-22T17:59:30.018Z,73.40
2023-06-22T18:01:56.388Z,73.35
2023-06-22T18:04:22.807Z,73.34
2023-06-22T18:06:49.558Z,73.57
2023-06-22T18:09:17.426Z,73.62
2023-06-22T18:11:46.275Z,73.53
2023-06-22T18:14:18.045Z,73.57
2023-06-22T18:16:46.354Z,73.22
2023-06-22T18:19:15.554Z,73.50
2023-06-22T18:21:42.591Z,73.53
2023-06-22T18:24:10.147Z,73.46
2023-06-22T18:26:37.972Z,73.44
2023-06-22T18:29:04.419Z,73.54
2023-06-22T18:31:32.220Z,73.35
2023-06-22T18:33:59.518Z,73.03
2023-06-22T18:36:42.072Z,73.42
2023-06-22T18:39:09.976Z,73.27
2023-06-22T18:41:41.843Z,73.40
2023-06-22T18:44:18.719Z,73.57
2023-06-22T18:46:45.276Z,73.83
2023-06-22T18:49:15.926Z,73.84
2023-06-22T18:52:07.487Z,73.92
2023-06-22T18:54:40.996Z,74.00
2023-06-22T18:57:14.054Z,74.10
2023-06-22T18:59:56.026Z,74.45
2023-06-22T19:02:47.323Z,74.72
2023-06-22T19:05:13.850Z,74.78
2023-06-22T19:07:52.900Z,74.74
2023-06-22T19:10:27.677Z,75.01
2023-06-22T19:12:58.656Z,74.83
2023-06-22T19:15:35.308Z,74.98
2023-06-22T19:18:24.519Z,75.26
2023-06-22T19:21:02.540Z,75.04
2023-06-22T19:23:28.926Z,75.37
2023-06-22T19:25:59.718Z,75.18
2023-06-22T19:28:26.994Z,75.13
2023-06-22T19:30:59.369Z,75.45
2023-06-22T19:33:27.654Z,75.37
2023-06-22T19:35:56.698Z,75.39
2023-06-22T19:38:25.247Z,75.40
2023-06-22T19:40:51.682Z,75.83
2023-06-22T19:43:18.453Z,75.94
2023-06-22T19:45:45.494Z,76.06
2023-06-22T19:48:13.370Z,76.30
2023-06-22T19:50:43.464Z,76.18
2023-06-22T19:53:19.042Z,75.82
2023-06-22T19:55:51.639Z,75.40
2023-06-22T19:58:20.766Z,75.35
2023-06-22T20:00:57.199Z,75.06
2023-06-22T20:03:28.789Z,74.90
2023-06-22T20:05:56.301Z,74.94
2023-06-22T20:08:22.697Z,74.72
2023-06-22T20:10:49.451Z,74.94
2023-06-22T20:13:19.594Z,74.83
2023-06-22T20:15:47.643Z,75.13
2023-06-22T20:18:15.462Z,74.90
2023-06-22T20:20:47.239Z,74.78
2023-06-22T20:23:19.029Z,74.38
2023-06-22T20:25:47.225Z,74.72
2023-06-22T20:28:17.911Z,74.63
2023-06-22T20:31:05.496Z,74.83
2023-06-22T20:33:32.646Z,75.26
2023-06-22T20:35:59.760Z,75.33
2023-06-22T20:38:28.845Z,75.53
2023-06-22T20:40:56.387Z,75.61
2023-06-22T20:43:24.977Z,75.68
2023-06-22T20:45:55.399Z,75.76
2023-06-22T20:48:36.978Z,75.84
2023-06-22T20:51:05.106Z,76.17
2023-06-22T20:53:32.596Z,76.52
2023-06-22T20:55:59.161Z,76.46
2023-06-22T20:58:25.593Z,76.54
2023-06-22T21:00:51.966Z,76.69
2023-06-22T21:03:18.483Z,76.80
2023-06-22T21:05:45.284Z,76.47
2023-06-22T21:08:11.659Z,76.86
2023-06-22T21:10:38.031Z,76.74
2023-06-22T21:13:04.546Z,76.85
2023-06-22T21:15:31.164Z,77.41
2023-06-22T21:17:57.893Z,76.84
2023-06-22T21:20:24.288Z,77.26
2023-06-22T21:22:50.660Z,77.12
2023-06-22T21:25:17.132Z,77.26
2023-06-22T21:27:44.299Z,77.30
2023-06-22T21:30:13.291Z,77.05
2023-06-22T21:32:43.135Z,77.54
2023-06-22T21:35:12.979Z,77.76
2023-06-22T21:37:39.464Z,77.58
2023-06-22T21:40:07.129Z,77.54
2023-06-22T21:42:33.594Z,77.45
2023-06-22T21:44:59.968Z,77.58
2023-06-22T21:47:26.381Z,77.38
2023-06-22T21:49:52.886Z,77.39
2023-06-22T21:52:19.347Z,76.62
2023-06-22T21:54:45.753Z,76.71
2023-06-22T21:57:12.871Z,76.79
2023-06-22T21:59:39.302Z,76.88
2023-06-22T22:02:06.091Z,76.35
2023-06-22T22:04:32.505Z,76.45
2023-06-22T22:06:58.887Z,76.50
2023-06-22T22:09:25.373Z,76.87
2023-06-22T22:11:51.833Z,76.84
2023-06-22T22:14:19.261Z,76.53
2023-06-22T22:16:46.166Z,77.02
2023-06-22T22:19:13.703Z,76.75
2023-06-22T22:21:40.160Z,76.94
2023-06-22T22:24:06.688Z,77.02
2023-06-22T22:26:33.235Z,76.49
2023-06-22T22:28:59.660Z,76.50
2023-06-22T22:31:26.172Z,76.96
2023-06-22T22:33:53.175Z,76.89
2023-06-22T22:36:19.755Z,76.83
2023-06-22T22:38:46.219Z,77.30
2023-06-22T22:41:12.587Z,76.72
2023-06-22T22:43:39.056Z,76.99
2023-06-22T22:46:05.588Z,76.65
2023-06-22T22:48:32.238Z,76.52
2023-06-22T22:51:00.524Z,76.46
2023-06-22T22:53:27.443Z,76.94
2023-06-22T22:55:53.838Z,76.82
2023-06-22T22:58:20.508Z,76.95
2023-06-22T23:00:47.092Z,76.89
2023-06-22T23:03:13.598Z,77.16
2023-06-22T23:05:40.055Z,76.86
2023-06-22T23:08:07.873Z,76.91
2023-06-22T23:10:34.598Z,77.19
2023-06-22T23:13:01.042Z,77.55
2023-06-22T23:15:27.471Z,77.42
2023-06-22T23:17:53.874Z,77.31
2023-06-22T23:20:20.987Z,77.34
2023-06-22T23:22:54.610Z,77.63
2023-06-22T23:25:20.980Z,77.54
2023-06-22T23:27:48.445Z,77.76
2023-06-22T23:30:14.914Z,77.80
2023-06-22T23:32:42.048Z,77.82
2023-06-22T23:35:10.889Z,77.65
2023-06-22T23:37:37.712Z,77.63
2023-06-22T23:40:11.824Z,77.93
2023-06-22T23:42:38.746Z,77.60
2023-06-22T23:45:05.578Z,78.13
2023-06-22T23:47:31.955Z,78.00
2023-06-22T23:49:58.470Z,77.64
2023-06-22T23:52:24.884Z,77.57
2023-06-22T23:54:51.261Z,77.80
2023-06-22T23:57:17.635Z,78.03
2023-06-22T23:59:47.424Z,77.58
